KETB

West Bend Municipal Airport

West Bend, Wisconsin, USA
METAR KETB 200055Z AUTO 23009G20KT 10SM CLR 03/M03 A2959 RMK AO2
Observed Flight Rules
Jan-20 @ 00:55 UTC (23 minutes ago) Visual Flight Rules
Wind Visibility Clouds
230° at 9 knots
 Gusting to 20 knots
10 miles
  • Clear skies
Temperatures Readings
Current 3°C / 37°F
Dewpoint -3°C / 27°F
Humidity 65%
Altimeter 29.59" Hg
Pressure 1002 hPa
Elevation 270
METAR KETB 200055Z AUTO 23009G20KT 10SM CLR 03/M03 A2959 RMK AO2
Observed Flight Rules
Jan-20 @ 00:55 UTC
(23 minutes ago)
VFR
Wind Visibility
230° at 9 knots
 Gusting to 20 knots
10 miles
Clouds
  • Clear skies
Temperature Dewpoint
3°C / 37°F -3°C / 27°F
Humidity Altimeter Pressure
65% 29.59" Hg 1002 hPa